sensor_id;sensor_type;location;lat;lon;timestamp;P1;durP1;ratioP1;P2;durP2;ratioP2
12320;SDS011;6225;52.720;8.276;2024-03-23T00:55:59;14.90;;;3.47;;
12320;SDS011;6225;52.720;8.276;2024-03-23T00:58:43;22.33;;;4.47;;
12320;SDS011;6225;52.720;8.276;2024-03-23T01:01:28;17.57;;;3.90;;
12320;SDS011;6225;52.720;8.276;2024-03-23T01:04:13;15.07;;;3.80;;
12320;SDS011;6225;52.720;8.276;2024-03-23T01:06:57;16.67;;;3.93;;
12320;SDS011;6225;52.720;8.276;2024-03-23T01:09:42;17.70;;;4.23;;
12320;SDS011;6225;52.720;8.276;2024-03-23T01:12:26;14.13;;;3.70;;
12320;SDS011;6225;52.720;8.276;2024-03-23T01:15:11;13.53;;;4.43;;
12320;SDS011;6225;52.720;8.276;2024-03-23T01:17:55;14.43;;;3.80;;
12320;SDS011;6225;52.720;8.276;2024-03-23T01:20:40;16.07;;;4.10;;
12320;SDS011;6225;52.720;8.276;2024-03-23T01:23:24;19.30;;;4.37;;
12320;SDS011;6225;52.720;8.276;2024-03-23T01:26:09;19.00;;;4.27;;
12320;SDS011;6225;52.720;8.276;2024-03-23T01:28:53;16.97;;;3.97;;
12320;SDS011;6225;52.720;8.276;2024-03-23T01:31:39;15.80;;;3.57;;
12320;SDS011;6225;52.720;8.276;2024-03-23T01:34:23;13.27;;;4.07;;
12320;SDS011;6225;52.720;8.276;2024-03-23T01:37:08;14.43;;;4.30;;
12320;SDS011;6225;52.720;8.276;2024-03-23T01:39:53;21.77;;;4.33;;
12320;SDS011;6225;52.720;8.276;2024-03-23T01:42:37;15.80;;;3.80;;
12320;SDS011;6225;52.720;8.276;2024-03-23T01:45:22;13.40;;;4.00;;
12320;SDS011;6225;52.720;8.276;2024-03-23T01:48:07;19.87;;;4.37;;
12320;SDS011;6225;52.720;8.276;2024-03-23T01:50:52;16.90;;;3.90;;
12320;SDS011;6225;52.720;8.276;2024-03-23T01:53:37;19.07;;;4.83;;
12320;SDS011;6225;52.720;8.276;2024-03-23T01:56:22;15.00;;;4.63;;
12320;SDS011;6225;52.720;8.276;2024-03-23T01:59:06;16.40;;;5.13;;
12320;SDS011;6225;52.720;8.276;2024-03-23T02:01:51;19.83;;;4.90;;
12320;SDS011;6225;52.720;8.276;2024-03-23T02:04:36;11.63;;;4.40;;
12320;SDS011;6225;52.720;8.276;2024-03-23T02:07:20;14.87;;;4.77;;
12320;SDS011;6225;52.720;8.276;2024-03-23T02:10:08;15.33;;;5.77;;
12320;SDS011;6225;52.720;8.276;2024-03-23T02:12:59;17.70;;;5.70;;
12320;SDS011;6225;52.720;8.276;2024-03-23T02:15:43;15.87;;;5.30;;
12320;SDS011;6225;52.720;8.276;2024-03-23T02:18:28;24.30;;;6.87;;
12320;SDS011;6225;52.720;8.276;2024-03-23T02:21:13;18.53;;;5.73;;
12320;SDS011;6225;52.720;8.276;2024-03-23T02:23:58;20.90;;;5.53;;
12320;SDS011;6225;52.720;8.276;2024-03-23T02:26:43;18.20;;;5.60;;
12320;SDS011;6225;52.720;8.276;2024-03-23T02:29:28;16.00;;;5.47;;
12320;SDS011;6225;52.720;8.276;2024-03-23T02:32:12;15.77;;;5.57;;
12320;SDS011;6225;52.720;8.276;2024-03-23T02:34:57;17.70;;;5.93;;
12320;SDS011;6225;52.720;8.276;2024-03-23T02:37:41;20.50;;;6.00;;
12320;SDS011;6225;52.720;8.276;2024-03-23T02:40:27;21.47;;;5.70;;
12320;SDS011;6225;52.720;8.276;2024-03-23T02:43:12;18.67;;;5.57;;
12320;SDS011;6225;52.720;8.276;2024-03-23T02:45:56;17.23;;;5.40;;
12320;SDS011;6225;52.720;8.276;2024-03-23T02:48:41;22.20;;;7.03;;
12320;SDS011;6225;52.720;8.276;2024-03-23T02:51:26;19.00;;;6.40;;
12320;SDS011;6225;52.720;8.276;2024-03-23T02:54:10;19.57;;;6.43;;
12320;SDS011;6225;52.720;8.276;2024-03-23T02:56:55;21.87;;;6.63;;
12320;SDS011;6225;52.720;8.276;2024-03-23T02:59:40;23.07;;;5.93;;
12320;SDS011;6225;52.720;8.276;2024-03-23T03:02:24;20.23;;;6.60;;
12320;SDS011;6225;52.720;8.276;2024-03-23T03:05:09;15.93;;;6.30;;
12320;SDS011;6225;52.720;8.276;2024-03-23T03:07:54;19.03;;;5.67;;
12320;SDS011;6225;52.720;8.276;2024-03-23T03:10:39;20.23;;;6.97;;
12320;SDS011;6225;52.720;8.276;2024-03-23T03:13:24;22.13;;;6.57;;
12320;SDS011;6225;52.720;8.276;2024-03-23T03:16:09;21.90;;;6.03;;
12320;SDS011;6225;52.720;8.276;2024-03-23T03:18:54;22.80;;;6.53;;
12320;SDS011;6225;52.720;8.276;2024-03-23T03:21:39;19.00;;;6.60;;
12320;SDS011;6225;52.720;8.276;2024-03-23T03:24:24;27.83;;;7.73;;
12320;SDS011;6225;52.720;8.276;2024-03-23T03:27:08;26.60;;;7.73;;
12320;SDS011;6225;52.720;8.276;2024-03-23T03:29:57;21.73;;;7.60;;
12320;SDS011;6225;52.720;8.276;2024-03-23T03:32:53;23.70;;;7.47;;
12320;SDS011;6225;52.720;8.276;2024-03-23T03:35:38;20.47;;;7.20;;
12320;SDS011;6225;52.720;8.276;2024-03-23T03:38:23;21.27;;;7.47;;
12320;SDS011;6225;52.720;8.276;2024-03-23T03:41:07;20.70;;;6.57;;
12320;SDS011;6225;52.720;8.276;2024-03-23T03:43:52;21.17;;;6.93;;
12320;SDS011;6225;52.720;8.276;2024-03-23T03:46:36;24.40;;;6.47;;
12320;SDS011;6225;52.720;8.276;2024-03-23T03:49:21;19.80;;;6.00;;
12320;SDS011;6225;52.720;8.276;2024-03-23T03:52:05;21.20;;;6.43;;
12320;SDS011;6225;52.720;8.276;2024-03-23T03:54:50;19.27;;;6.47;;
12320;SDS011;6225;52.720;8.276;2024-03-23T03:57:34;19.97;;;5.97;;
12320;SDS011;6225;52.720;8.276;2024-03-23T04:00:19;21.50;;;5.17;;
12320;SDS011;6225;52.720;8.276;2024-03-23T04:03:04;21.40;;;4.80;;
12320;SDS011;6225;52.720;8.276;2024-03-23T04:05:52;18.67;;;4.80;;
12320;SDS011;6225;52.720;8.276;2024-03-23T04:08:36;26.67;;;5.70;;
12320;SDS011;6225;52.720;8.276;2024-03-23T04:11:21;30.40;;;5.17;;
12320;SDS011;6225;52.720;8.276;2024-03-23T04:14:05;30.17;;;6.03;;
12320;SDS011;6225;52.720;8.276;2024-03-23T04:16:50;20.00;;;4.30;;
12320;SDS011;6225;52.720;8.276;2024-03-23T04:19:35;15.23;;;4.57;;
12320;SDS011;6225;52.720;8.276;2024-03-23T04:22:19;22.30;;;5.37;;
12320;SDS011;6225;52.720;8.276;2024-03-23T04:25:04;19.20;;;4.50;;
12320;SDS011;6225;52.720;8.276;2024-03-23T04:27:50;19.70;;;4.30;;
12320;SDS011;6225;52.720;8.276;2024-03-23T04:30:35;24.93;;;5.77;;
12320;SDS011;6225;52.720;8.276;2024-03-23T04:33:20;21.77;;;5.20;;
12320;SDS011;6225;52.720;8.276;2024-03-23T04:36:05;21.37;;;4.80;;
12320;SDS011;6225;52.720;8.276;2024-03-23T04:38:51;17.10;;;4.03;;
12320;SDS011;6225;52.720;8.276;2024-03-23T04:41:36;25.00;;;4.80;;
12320;SDS011;6225;52.720;8.276;2024-03-23T04:44:20;27.53;;;5.20;;
12320;SDS011;6225;52.720;8.276;2024-03-23T04:47:05;20.10;;;4.63;;
12320;SDS011;6225;52.720;8.276;2024-03-23T04:49:50;22.23;;;4.50;;
12320;SDS011;6225;52.720;8.276;2024-03-23T04:52:34;25.83;;;5.00;;
12320;SDS011;6225;52.720;8.276;2024-03-23T04:55:19;16.93;;;4.03;;
12320;SDS011;6225;52.720;8.276;2024-03-23T04:58:05;20.10;;;4.60;;
12320;SDS011;6225;52.720;8.276;2024-03-23T05:00:56;15.57;;;4.17;;
12320;SDS011;6225;52.720;8.276;2024-03-23T05:03:41;15.93;;;4.23;;
12320;SDS011;6225;52.720;8.276;2024-03-23T05:06:26;23.13;;;5.07;;
12320;SDS011;6225;52.720;8.276;2024-03-23T05:09:10;16.40;;;4.63;;
12320;SDS011;6225;52.720;8.276;2024-03-23T05:11:55;21.13;;;5.10;;
12320;SDS011;6225;52.720;8.276;2024-03-23T05:14:40;15.67;;;4.00;;
12320;SDS011;6225;52.720;8.276;2024-03-23T05:17:25;23.40;;;4.60;;
12320;SDS011;6225;52.720;8.276;2024-03-23T05:20:10;21.10;;;4.87;;
12320;SDS011;6225;52.720;8.276;2024-03-23T05:22:56;10.23;;;4.43;;
12320;SDS011;6225;52.720;8.276;2024-03-23T05:25:40;26.27;;;5.30;;
12320;SDS011;6225;52.720;8.276;2024-03-23T05:28:25;24.40;;;6.40;;
12320;SDS011;6225;52.720;8.276;2024-03-23T05:31:09;16.93;;;4.53;;
12320;SDS011;6225;52.720;8.276;2024-03-23T05:33:54;22.13;;;4.50;;
12320;SDS011;6225;52.720;8.276;2024-03-23T05:36:39;19.33;;;5.07;;
12320;SDS011;6225;52.720;8.276;2024-03-23T05:39:24;17.30;;;5.43;;
12320;SDS011;6225;52.720;8.276;2024-03-23T05:42:09;23.47;;;4.37;;
12320;SDS011;6225;52.720;8.276;2024-03-23T05:44:54;17.27;;;4.37;;
12320;SDS011;6225;52.720;8.276;2024-03-23T05:47:38;19.30;;;4.77;;
12320;SDS011;6225;52.720;8.276;2024-03-23T05:50:23;21.63;;;5.07;;
12320;SDS011;6225;52.720;8.276;2024-03-23T05:53:09;18.43;;;4.63;;
12320;SDS011;6225;52.720;8.276;2024-03-23T05:56:00;22.67;;;5.43;;
12320;SDS011;6225;52.720;8.276;2024-03-23T05:58:49;19.37;;;5.23;;
12320;SDS011;6225;52.720;8.276;2024-03-23T06:01:35;20.90;;;4.47;;
12320;SDS011;6225;52.720;8.276;2024-03-23T06:04:22;16.80;;;4.80;;
12320;SDS011;6225;52.720;8.276;2024-03-23T06:07:08;18.80;;;5.07;;
12320;SDS011;6225;52.720;8.276;2024-03-23T06:09:57;19.07;;;5.00;;
12320;SDS011;6225;52.720;8.276;2024-03-23T06:12:42;20.00;;;5.30;;
12320;SDS011;6225;52.720;8.276;2024-03-23T06:15:32;23.80;;;4.77;;
12320;SDS011;6225;52.720;8.276;2024-03-23T06:18:21;16.87;;;4.70;;
12320;SDS011;6225;52.720;8.276;2024-03-23T06:21:05;20.63;;;5.30;;
12320;SDS011;6225;52.720;8.276;2024-03-23T06:23:57;20.77;;;5.13;;
12320;SDS011;6225;52.720;8.276;2024-03-23T06:26:41;27.87;;;5.37;;
12320;SDS011;6225;52.720;8.276;2024-03-23T06:29:25;15.27;;;4.97;;
12320;SDS011;6225;52.720;8.276;2024-03-23T06:32:10;19.37;;;5.07;;
12320;SDS011;6225;52.720;8.276;2024-03-23T06:34:54;23.00;;;5.40;;
12320;SDS011;6225;52.720;8.276;2024-03-23T06:37:39;16.93;;;5.10;;
12320;SDS011;6225;52.720;8.276;2024-03-23T06:40:24;20.10;;;4.97;;
12320;SDS011;6225;52.720;8.276;2024-03-23T06:43:08;19.73;;;5.03;;
12320;SDS011;6225;52.720;8.276;2024-03-23T06:45:55;17.27;;;5.40;;
12320;SDS011;6225;52.720;8.276;2024-03-23T06:48:40;19.27;;;5.07;;
12320;SDS011;6225;52.720;8.276;2024-03-23T06:51:24;22.13;;;5.43;;
12320;SDS011;6225;52.720;8.276;2024-03-23T06:54:08;18.90;;;4.33;;
12320;SDS011;6225;52.720;8.276;2024-03-23T06:56:52;15.67;;;5.43;;
12320;SDS011;6225;52.720;8.276;2024-03-23T06:59:36;20.50;;;4.77;;
12320;SDS011;6225;52.720;8.276;2024-03-23T07:02:22;17.73;;;5.27;;
12320;SDS011;6225;52.720;8.276;2024-03-23T07:05:09;23.10;;;4.80;;
12320;SDS011;6225;52.720;8.276;2024-03-23T07:07:54;16.67;;;4.97;;
12320;SDS011;6225;52.720;8.276;2024-03-23T07:10:41;16.53;;;5.23;;
12320;SDS011;6225;52.720;8.276;2024-03-23T07:13:25;22.30;;;5.03;;
12320;SDS011;6225;52.720;8.276;2024-03-23T07:16:09;18.50;;;4.30;;
12320;SDS011;6225;52.720;8.276;2024-03-23T07:18:53;23.90;;;4.77;;
12320;SDS011;6225;52.720;8.276;2024-03-23T07:21:38;20.33;;;4.67;;
12320;SDS011;6225;52.720;8.276;2024-03-23T07:24:22;22.53;;;5.37;;
12320;SDS011;6225;52.720;8.276;2024-03-23T07:27:06;20.23;;;4.67;;
12320;SDS011;6225;52.720;8.276;2024-03-23T07:29:53;15.30;;;4.80;;
12320;SDS011;6225;52.720;8.276;2024-03-23T07:32:39;16.63;;;4.00;;
12320;SDS011;6225;52.720;8.276;2024-03-23T07:35:22;14.47;;;4.23;;
12320;SDS011;6225;52.720;8.276;2024-03-23T07:38:06;18.73;;;4.50;;
12320;SDS011;6225;52.720;8.276;2024-03-23T07:40:50;16.13;;;3.83;;
12320;SDS011;6225;52.720;8.276;2024-03-23T07:43:39;13.77;;;4.27;;
12320;SDS011;6225;52.720;8.276;2024-03-23T07:46:24;10.80;;;3.40;;
12320;SDS011;6225;52.720;8.276;2024-03-23T07:49:09;17.93;;;4.23;;
12320;SDS011;6225;52.720;8.276;2024-03-23T07:51:53;19.33;;;4.00;;
12320;SDS011;6225;52.720;8.276;2024-03-23T07:54:37;17.37;;;4.30;;
12320;SDS011;6225;52.720;8.276;2024-03-23T07:57:21;19.40;;;4.40;;
12320;SDS011;6225;52.720;8.276;2024-03-23T08:00:06;22.73;;;4.83;;
12320;SDS011;6225;52.720;8.276;2024-03-23T08:02:51;21.10;;;3.77;;
12320;SDS011;6225;52.720;8.276;2024-03-23T08:05:35;18.83;;;4.10;;
12320;SDS011;6225;52.720;8.276;2024-03-23T08:08:19;21.00;;;3.90;;
12320;SDS011;6225;52.720;8.276;2024-03-23T08:11:03;15.40;;;3.70;;
12320;SDS011;6225;52.720;8.276;2024-03-23T08:13:48;18.73;;;3.80;;
12320;SDS011;6225;52.720;8.276;2024-03-23T08:16:32;13.83;;;3.47;;
12320;SDS011;6225;52.720;8.276;2024-03-23T08:19:17;17.50;;;3.93;;
12320;SDS011;6225;52.720;8.276;2024-03-23T08:22:01;11.00;;;2.83;;
12320;SDS011;6225;52.720;8.276;2024-03-23T08:24:45;13.13;;;3.30;;
12320;SDS011;6225;52.720;8.276;2024-03-23T08:27:29;15.30;;;3.67;;
12320;SDS011;6225;52.720;8.276;2024-03-23T08:30:14;14.07;;;3.17;;
12320;SDS011;6225;52.720;8.276;2024-03-23T08:32:58;13.50;;;3.13;;
12320;SDS011;6225;52.720;8.276;2024-03-23T08:35:42;13.50;;;3.27;;
12320;SDS011;6225;52.720;8.276;2024-03-23T08:38:35;18.83;;;4.23;;
12320;SDS011;6225;52.720;8.276;2024-03-23T08:41:20;11.20;;;2.77;;
12320;SDS011;6225;52.720;8.276;2024-03-23T08:44:04;7.40;;;2.27;;
12320;SDS011;6225;52.720;8.276;2024-03-23T08:46:48;15.43;;;2.47;;
12320;SDS011;6225;52.720;8.276;2024-03-23T08:49:32;11.30;;;2.83;;
12320;SDS011;6225;52.720;8.276;2024-03-23T08:52:16;6.53;;;2.30;;
12320;SDS011;6225;52.720;8.276;2024-03-23T08:55:00;5.23;;;1.73;;
12320;SDS011;6225;52.720;8.276;2024-03-23T08:57:44;10.17;;;2.60;;
12320;SDS011;6225;52.720;8.276;2024-03-23T09:00:28;8.43;;;2.30;;
12320;SDS011;6225;52.720;8.276;2024-03-23T09:03:13;5.40;;;2.13;;
12320;SDS011;6225;52.720;8.276;2024-03-23T09:05:57;6.27;;;2.00;;
12320;SDS011;6225;52.720;8.276;2024-03-23T09:08:42;8.90;;;2.27;;
12320;SDS011;6225;52.720;8.276;2024-03-23T09:11:26;8.87;;;2.40;;
12320;SDS011;6225;52.720;8.276;2024-03-23T09:14:11;11.23;;;2.43;;
12320;SDS011;6225;52.720;8.276;2024-03-23T09:16:55;5.83;;;2.47;;
12320;SDS011;6225;52.720;8.276;2024-03-23T09:19:39;9.90;;;2.57;;
12320;SDS011;6225;52.720;8.276;2024-03-23T09:22:23;12.17;;;3.23;;
12320;SDS011;6225;52.720;8.276;2024-03-23T09:25:08;12.30;;;3.07;;
12320;SDS011;6225;52.720;8.276;2024-03-23T09:27:52;14.57;;;3.13;;
12320;SDS011;6225;52.720;8.276;2024-03-23T09:30:36;5.53;;;1.93;;
12320;SDS011;6225;52.720;8.276;2024-03-23T09:33:26;7.07;;;2.00;;
12320;SDS011;6225;52.720;8.276;2024-03-23T09:36:10;8.47;;;2.57;;
12320;SDS011;6225;52.720;8.276;2024-03-23T09:38:54;7.27;;;2.33;;
12320;SDS011;6225;52.720;8.276;2024-03-23T09:41:38;10.33;;;2.87;;
12320;SDS011;6225;52.720;8.276;2024-03-23T09:44:23;9.00;;;2.50;;
12320;SDS011;6225;52.720;8.276;2024-03-23T09:47:09;7.23;;;2.10;;
12320;SDS011;6225;52.720;8.276;2024-03-23T09:49:54;6.67;;;1.80;;
12320;SDS011;6225;52.720;8.276;2024-03-23T09:52:38;7.73;;;1.87;;
12320;SDS011;6225;52.720;8.276;2024-03-23T09:55:24;7.37;;;2.30;;
12320;SDS011;6225;52.720;8.276;2024-03-23T09:58:15;10.03;;;1.80;;
12320;SDS011;6225;52.720;8.276;2024-03-23T10:01:01;3.90;;;1.00;;
12320;SDS011;6225;52.720;8.276;2024-03-23T10:03:46;3.93;;;1.37;;
12320;SDS011;6225;52.720;8.276;2024-03-23T10:06:30;0.97;;;0.70;;
12320;SDS011;6225;52.720;8.276;2024-03-23T10:09:17;1.73;;;0.73;;
12320;SDS011;6225;52.720;8.276;2024-03-23T10:12:16;1.57;;;0.60;;
12320;SDS011;6225;52.720;8.276;2024-03-23T10:15:01;0.83;;;0.40;;
12320;SDS011;6225;52.720;8.276;2024-03-23T10:17:46;3.07;;;1.57;;
12320;SDS011;6225;52.720;8.276;2024-03-23T10:20:31;3.23;;;0.63;;
12320;SDS011;6225;52.720;8.276;2024-03-23T10:23:18;2.47;;;1.07;;
12320;SDS011;6225;52.720;8.276;2024-03-23T10:29:15;1.10;;;0.70;;
12320;SDS011;6225;52.720;8.276;2024-03-23T10:32:08;3.00;;;0.70;;
12320;SDS011;6225;52.720;8.276;2024-03-23T10:34:53;2.80;;;1.00;;
12320;SDS011;6225;52.720;8.276;2024-03-23T10:37:37;2.30;;;1.00;;
12320;SDS011;6225;52.720;8.276;2024-03-23T10:40:21;1.47;;;1.20;;
12320;SDS011;6225;52.720;8.276;2024-03-23T10:43:06;8.63;;;1.30;;
12320;SDS011;6225;52.720;8.276;2024-03-23T10:45:52;3.13;;;1.47;;
12320;SDS011;6225;52.720;8.276;2024-03-23T10:48:36;4.20;;;1.43;;
12320;SDS011;6225;52.720;8.276;2024-03-23T10:51:21;1.23;;;1.13;;
12320;SDS011;6225;52.720;8.276;2024-03-23T10:54:05;3.40;;;1.90;;
12320;SDS011;6225;52.720;8.276;2024-03-23T10:56:52;2.87;;;1.40;;
12320;SDS011;6225;52.720;8.276;2024-03-23T10:59:41;3.87;;;1.90;;
12320;SDS011;6225;52.720;8.276;2024-03-23T11:02:28;2.30;;;1.80;;
12320;SDS011;6225;52.720;8.276;2024-03-23T11:08:09;3.13;;;1.87;;
12320;SDS011;6225;52.720;8.276;2024-03-23T11:10:53;4.33;;;2.13;;
12320;SDS011;6225;52.720;8.276;2024-03-23T11:13:57;4.77;;;2.10;;
12320;SDS011;6225;52.720;8.276;2024-03-23T11:16:41;5.53;;;2.20;;
12320;SDS011;6225;52.720;8.276;2024-03-23T11:19:35;6.23;;;1.83;;
12320;SDS011;6225;52.720;8.276;2024-03-23T11:22:37;6.37;;;2.00;;
12320;SDS011;6225;52.720;8.276;2024-03-23T11:25:23;6.33;;;1.23;;
12320;SDS011;6225;52.720;8.276;2024-03-23T11:28:11;3.30;;;1.00;;
12320;SDS011;6225;52.720;8.276;2024-03-23T11:30:56;5.50;;;1.50;;
12320;SDS011;6225;52.720;8.276;2024-03-23T11:33:40;5.80;;;1.50;;
12320;SDS011;6225;52.720;8.276;2024-03-23T11:36:24;5.17;;;1.53;;
12320;SDS011;6225;52.720;8.276;2024-03-23T11:39:15;4.47;;;1.30;;
12320;SDS011;6225;52.720;8.276;2024-03-23T11:42:03;2.07;;;1.00;;
12320;SDS011;6225;52.720;8.276;2024-03-23T11:44:48;4.83;;;1.43;;
12320;SDS011;6225;52.720;8.276;2024-03-23T11:47:32;3.87;;;1.20;;
12320;SDS011;6225;52.720;8.276;2024-03-23T11:50:20;5.43;;;1.33;;
12320;SDS011;6225;52.720;8.276;2024-03-23T11:56:02;4.33;;;1.40;;
12320;SDS011;6225;52.720;8.276;2024-03-23T11:58:47;3.33;;;1.20;;
12320;SDS011;6225;52.720;8.276;2024-03-23T12:01:32;5.57;;;1.50;;
12320;SDS011;6225;52.720;8.276;2024-03-23T12:04:25;7.00;;;1.40;;
12320;SDS011;6225;52.720;8.276;2024-03-23T12:07:19;2.33;;;1.10;;
12320;SDS011;6225;52.720;8.276;2024-03-23T12:10:07;4.27;;;1.30;;
12320;SDS011;6225;52.720;8.276;2024-03-23T12:13:01;4.63;;;1.30;;
12320;SDS011;6225;52.720;8.276;2024-03-23T12:15:46;4.27;;;1.00;;
12320;SDS011;6225;52.720;8.276;2024-03-23T12:18:33;2.53;;;0.93;;
12320;SDS011;6225;52.720;8.276;2024-03-23T12:21:18;3.37;;;1.50;;
12320;SDS011;6225;52.720;8.276;2024-03-23T12:24:02;1.70;;;1.00;;
12320;SDS011;6225;52.720;8.276;2024-03-23T12:26:47;3.83;;;0.80;;
12320;SDS011;6225;52.720;8.276;2024-03-23T12:29:34;2.43;;;0.97;;
12320;SDS011;6225;52.720;8.276;2024-03-23T12:32:18;4.50;;;1.37;;
12320;SDS011;6225;52.720;8.276;2024-03-23T12:35:02;4.30;;;1.20;;
12320;SDS011;6225;52.720;8.276;2024-03-23T12:37:47;1.87;;;1.23;;
12320;SDS011;6225;52.720;8.276;2024-03-23T12:40:31;8.00;;;1.50;;
12320;SDS011;6225;52.720;8.276;2024-03-23T12:43:16;4.60;;;1.47;;
12320;SDS011;6225;52.720;8.276;2024-03-23T12:46:01;2.47;;;1.20;;
12320;SDS011;6225;52.720;8.276;2024-03-23T12:48:45;5.10;;;1.60;;
12320;SDS011;6225;52.720;8.276;2024-03-23T12:51:29;4.77;;;1.37;;
12320;SDS011;6225;52.720;8.276;2024-03-23T12:54:13;5.67;;;1.20;;
12320;SDS011;6225;52.720;8.276;2024-03-23T12:56:57;5.70;;;1.27;;
12320;SDS011;6225;52.720;8.276;2024-03-23T12:59:41;5.47;;;1.47;;
12320;SDS011;6225;52.720;8.276;2024-03-23T13:02:25;8.30;;;1.30;;
12320;SDS011;6225;52.720;8.276;2024-03-23T13:05:12;5.17;;;1.60;;
12320;SDS011;6225;52.720;8.276;2024-03-23T13:07:57;2.77;;;1.17;;
12320;SDS011;6225;52.720;8.276;2024-03-23T13:10:41;2.90;;;1.20;;
12320;SDS011;6225;52.720;8.276;2024-03-23T13:13:26;3.50;;;1.70;;
12320;SDS011;6225;52.720;8.276;2024-03-23T13:16:10;5.70;;;1.33;;
12320;SDS011;6225;52.720;8.276;2024-03-23T13:18:54;6.63;;;1.00;;
12320;SDS011;6225;52.720;8.276;2024-03-23T13:21:38;2.80;;;0.60;;
12320;SDS011;6225;52.720;8.276;2024-03-23T13:24:23;1.93;;;0.80;;
12320;SDS011;6225;52.720;8.276;2024-03-23T13:27:08;2.93;;;0.67;;
12320;SDS011;6225;52.720;8.276;2024-03-23T13:29:54;0.80;;;0.40;;
12320;SDS011;6225;52.720;8.276;2024-03-23T13:32:38;4.80;;;0.70;;
12320;SDS011;6225;52.720;8.276;2024-03-23T13:35:23;1.93;;;0.63;;
12320;SDS011;6225;52.720;8.276;2024-03-23T13:38:07;3.27;;;0.77;;
12320;SDS011;6225;52.720;8.276;2024-03-23T13:40:58;5.93;;;0.80;;
12320;SDS011;6225;52.720;8.276;2024-03-23T13:43:43;3.80;;;0.90;;
12320;SDS011;6225;52.720;8.276;2024-03-23T13:46:27;2.37;;;0.90;;
12320;SDS011;6225;52.720;8.276;2024-03-23T13:49:32;2.67;;;0.77;;
12320;SDS011;6225;52.720;8.276;2024-03-23T13:52:17;8.47;;;1.20;;
12320;SDS011;6225;52.720;8.276;2024-03-23T13:55:09;2.93;;;0.87;;
12320;SDS011;6225;52.720;8.276;2024-03-23T13:57:59;5.90;;;1.17;;
12320;SDS011;6225;52.720;8.276;2024-03-23T14:00:44;5.65;;;1.42;;
12320;SDS011;6225;52.720;8.276;2024-03-23T14:03:28;5.40;;;1.27;;
12320;SDS011;6225;52.720;8.276;2024-03-23T14:06:13;2.63;;;0.90;;
12320;SDS011;6225;52.720;8.276;2024-03-23T14:08:57;3.27;;;0.93;;
12320;SDS011;6225;52.720;8.276;2024-03-23T14:11:41;4.50;;;1.00;;
12320;SDS011;6225;52.720;8.276;2024-03-23T14:14:27;4.93;;;1.03;;
12320;SDS011;6225;52.720;8.276;2024-03-23T14:17:11;2.40;;;0.90;;
12320;SDS011;6225;52.720;8.276;2024-03-23T14:19:58;3.37;;;1.10;;
12320;SDS011;6225;52.720;8.276;2024-03-23T14:22:45;4.27;;;0.90;;
12320;SDS011;6225;52.720;8.276;2024-03-23T14:25:29;3.47;;;1.13;;
12320;SDS011;6225;52.720;8.276;2024-03-23T14:28:14;6.57;;;1.40;;
12320;SDS011;6225;52.720;8.276;2024-03-23T14:30:58;2.90;;;1.17;;
12320;SDS011;6225;52.720;8.276;2024-03-23T14:33:43;4.30;;;1.43;;
12320;SDS011;6225;52.720;8.276;2024-03-23T14:36:30;4.93;;;1.00;;
12320;SDS011;6225;52.720;8.276;2024-03-23T14:39:14;2.10;;;0.90;;
12320;SDS011;6225;52.720;8.276;2024-03-23T14:41:58;6.90;;;1.20;;
12320;SDS011;6225;52.720;8.276;2024-03-23T14:44:42;2.77;;;1.13;;
12320;SDS011;6225;52.720;8.276;2024-03-23T14:47:26;3.17;;;1.10;;
12320;SDS011;6225;52.720;8.276;2024-03-23T14:50:10;5.80;;;0.80;;
12320;SDS011;6225;52.720;8.276;2024-03-23T14:52:59;3.87;;;0.90;;
12320;SDS011;6225;52.720;8.276;2024-03-23T14:55:43;5.23;;;1.27;;
12320;SDS011;6225;52.720;8.276;2024-03-23T14:58:32;6.73;;;1.40;;
12320;SDS011;6225;52.720;8.276;2024-03-23T15:01:18;4.07;;;1.10;;
12320;SDS011;6225;52.720;8.276;2024-03-23T15:04:03;4.20;;;1.03;;
12320;SDS011;6225;52.720;8.276;2024-03-23T15:06:48;5.03;;;1.40;;
12320;SDS011;6225;52.720;8.276;2024-03-23T15:09:33;3.37;;;0.83;;
12320;SDS011;6225;52.720;8.276;2024-03-23T15:12:17;6.27;;;1.10;;
12320;SDS011;6225;52.720;8.276;2024-03-23T15:15:02;2.87;;;0.77;;
12320;SDS011;6225;52.720;8.276;2024-03-23T15:17:46;5.33;;;1.10;;
12320;SDS011;6225;52.720;8.276;2024-03-23T15:20:30;5.63;;;1.40;;
12320;SDS011;6225;52.720;8.276;2024-03-23T15:23:14;3.27;;;1.10;;
12320;SDS011;6225;52.720;8.276;2024-03-23T15:25:59;6.97;;;1.43;;
12320;SDS011;6225;52.720;8.276;2024-03-23T15:28:47;6.30;;;1.07;;
12320;SDS011;6225;52.720;8.276;2024-03-23T15:31:41;4.50;;;1.40;;
12320;SDS011;6225;52.720;8.276;2024-03-23T15:34:26;4.10;;;0.97;;
12320;SDS011;6225;52.720;8.276;2024-03-23T15:37:10;5.00;;;1.30;;
12320;SDS011;6225;52.720;8.276;2024-03-23T15:39:54;7.23;;;1.20;;
12320;SDS011;6225;52.720;8.276;2024-03-23T15:42:38;5.47;;;1.37;;
12320;SDS011;6225;52.720;8.276;2024-03-23T15:45:23;6.87;;;1.30;;
12320;SDS011;6225;52.720;8.276;2024-03-23T15:48:08;4.93;;;1.30;;
12320;SDS011;6225;52.720;8.276;2024-03-23T15:50:53;5.27;;;1.10;;
12320;SDS011;6225;52.720;8.276;2024-03-23T15:53:38;5.60;;;1.30;;
12320;SDS011;6225;52.720;8.276;2024-03-23T15:56:22;6.40;;;1.40;;
12320;SDS011;6225;52.720;8.276;2024-03-23T15:59:07;2.60;;;1.17;;
12320;SDS011;6225;52.720;8.276;2024-03-23T16:01:51;3.13;;;1.03;;
12320;SDS011;6225;52.720;8.276;2024-03-23T16:04:36;5.27;;;1.27;;
12320;SDS011;6225;52.720;8.276;2024-03-23T16:07:21;4.47;;;1.20;;
12320;SDS011;6225;52.720;8.276;2024-03-23T16:10:05;4.73;;;0.97;;
12320;SDS011;6225;52.720;8.276;2024-03-23T16:12:52;4.37;;;0.90;;
12320;SDS011;6225;52.720;8.276;2024-03-23T16:15:37;2.80;;;0.80;;
12320;SDS011;6225;52.720;8.276;2024-03-23T16:18:22;3.60;;;0.70;;
12320;SDS011;6225;52.720;8.276;2024-03-23T16:21:06;1.23;;;0.60;;
12320;SDS011;6225;52.720;8.276;2024-03-23T16:23:54;3.87;;;1.00;;
12320;SDS011;6225;52.720;8.276;2024-03-23T16:26:41;3.27;;;0.80;;
12320;SDS011;6225;52.720;8.276;2024-03-23T16:29:28;3.00;;;0.80;;
12320;SDS011;6225;52.720;8.276;2024-03-23T16:32:13;4.83;;;1.23;;
12320;SDS011;6225;52.720;8.276;2024-03-23T16:34:58;2.97;;;1.03;;
12320;SDS011;6225;52.720;8.276;2024-03-23T16:37:42;2.07;;;1.00;;
12320;SDS011;6225;52.720;8.276;2024-03-23T16:40:27;2.00;;;0.80;;
12320;SDS011;6225;52.720;8.276;2024-03-23T16:43:11;5.30;;;0.90;;
12320;SDS011;6225;52.720;8.276;2024-03-23T16:46:00;6.07;;;1.27;;
12320;SDS011;6225;52.720;8.276;2024-03-23T16:48:44;4.07;;;1.00;;
12320;SDS011;6225;52.720;8.276;2024-03-23T16:51:29;5.47;;;1.00;;
12320;SDS011;6225;52.720;8.276;2024-03-23T16:54:14;2.07;;;0.70;;
12320;SDS011;6225;52.720;8.276;2024-03-23T16:56:59;4.10;;;1.07;;
12320;SDS011;6225;52.720;8.276;2024-03-23T16:59:43;3.07;;;1.03;;
12320;SDS011;6225;52.720;8.276;2024-03-23T17:02:28;2.80;;;0.70;;
12320;SDS011;6225;52.720;8.276;2024-03-23T17:05:12;2.93;;;0.90;;
12320;SDS011;6225;52.720;8.276;2024-03-23T17:08:00;5.40;;;1.07;;
12320;SDS011;6225;52.720;8.276;2024-03-23T17:10:44;3.30;;;0.80;;
12320;SDS011;6225;52.720;8.276;2024-03-23T17:13:29;4.07;;;1.00;;
12320;SDS011;6225;52.720;8.276;2024-03-23T17:16:14;3.10;;;1.10;;
12320;SDS011;6225;52.720;8.276;2024-03-23T17:19:00;4.20;;;1.00;;
12320;SDS011;6225;52.720;8.276;2024-03-23T17:21:45;5.40;;;0.87;;
12320;SDS011;6225;52.720;8.276;2024-03-23T17:24:32;3.63;;;1.00;;
12320;SDS011;6225;52.720;8.276;2024-03-23T17:27:17;5.60;;;0.97;;
12320;SDS011;6225;52.720;8.276;2024-03-23T17:30:01;6.13;;;1.13;;
12320;SDS011;6225;52.720;8.276;2024-03-23T17:32:47;6.97;;;1.13;;
12320;SDS011;6225;52.720;8.276;2024-03-23T17:35:31;3.77;;;1.10;;
12320;SDS011;6225;52.720;8.276;2024-03-23T17:38:16;5.13;;;1.07;;
12320;SDS011;6225;52.720;8.276;2024-03-23T17:41:00;5.13;;;1.50;;
12320;SDS011;6225;52.720;8.276;2024-03-23T17:43:45;6.10;;;1.33;;
12320;SDS011;6225;52.720;8.276;2024-03-23T17:46:30;5.63;;;1.10;;
12320;SDS011;6225;52.720;8.276;2024-03-23T17:49:15;7.37;;;1.20;;